sensor_id;sensor_type;location;lat;lon;timestamp;pressure;altitude;pressure_sealevel;temperature;humidity
41862;BME280;27537;57.134;-2.136;2022-10-16T00:01:14;98339.41;;;9.33;100.00
41862;BME280;27537;57.134;-2.136;2022-10-16T00:03:42;98336.28;;;9.28;100.00
41862;BME280;27537;57.134;-2.136;2022-10-16T00:06:10;98324.97;;;9.27;100.00
41862;BME280;27537;57.134;-2.136;2022-10-16T00:08:38;98315.06;;;9.32;100.00
41862;BME280;27537;57.134;-2.136;2022-10-16T00:11:11;98310.16;;;9.28;100.00
41862;BME280;27537;57.134;-2.136;2022-10-16T00:13:39;98329.16;;;9.30;100.00
41862;BME280;27537;57.134;-2.136;2022-10-16T00:16:06;98318.53;;;9.20;100.00
41862;BME280;27537;57.134;-2.136;2022-10-16T00:18:34;98332.09;;;9.25;100.00
41862;BME280;27537;57.134;-2.136;2022-10-16T00:21:09;98322.09;;;9.19;100.00
41862;BME280;27537;57.134;-2.136;2022-10-16T00:23:37;98321.66;;;9.25;100.00
41862;BME280;27537;57.134;-2.136;2022-10-16T00:26:08;98314.22;;;9.32;100.00
41862;BME280;27537;57.134;-2.136;2022-10-16T00:28:35;98311.56;;;9.08;100.00
41862;BME280;27537;57.134;-2.136;2022-10-16T00:31:08;98313.84;;;9.12;100.00
41862;BME280;27537;57.134;-2.136;2022-10-16T00:33:36;98335.25;;;9.18;100.00
41862;BME280;27537;57.134;-2.136;2022-10-16T00:36:04;98323.56;;;9.10;100.00
41862;BME280;27537;57.134;-2.136;2022-10-16T00:38:31;98330.84;;;9.18;100.00
41862;BME280;27537;57.134;-2.136;2022-10-16T00:40:58;98340.38;;;9.19;100.00
41862;BME280;27537;57.134;-2.136;2022-10-16T00:43:42;98360.41;;;9.31;100.00
41862;BME280;27537;57.134;-2.136;2022-10-16T00:46:24;98353.94;;;9.11;100.00
41862;BME280;27537;57.134;-2.136;2022-10-16T00:49:10;98350.81;;;9.06;100.00
41862;BME280;27537;57.134;-2.136;2022-10-16T00:51:43;98335.91;;;8.96;100.00
41862;BME280;27537;57.134;-2.136;2022-10-16T00:54:19;98351.16;;;9.02;100.00
41862;BME280;27537;57.134;-2.136;2022-10-16T00:56:48;98338.59;;;8.94;100.00
41862;BME280;27537;57.134;-2.136;2022-10-16T00:59:19;98343.72;;;8.96;100.00
41862;BME280;27537;57.134;-2.136;2022-10-16T01:01:46;98334.25;;;8.95;100.00
41862;BME280;27537;57.134;-2.136;2022-10-16T01:04:13;98335.72;;;8.86;100.00
41862;BME280;27537;57.134;-2.136;2022-10-16T01:09:31;98332.16;;;8.87;100.00
41862;BME280;27537;57.134;-2.136;2022-10-16T01:12:23;98343.72;;;8.96;100.00
41862;BME280;27537;57.134;-2.136;2022-10-16T01:17:44;98322.97;;;8.81;100.00
41862;BME280;27537;57.134;-2.136;2022-10-16T01:20:24;98298.69;;;8.68;100.00
41862;BME280;27537;57.134;-2.136;2022-10-16T01:28:22;98315.66;;;8.86;100.00
41862;BME280;27537;57.134;-2.136;2022-10-16T01:30:54;98336.75;;;8.96;100.00
41862;BME280;27537;57.134;-2.136;2022-10-16T01:33:35;98332.28;;;8.85;100.00
41862;BME280;27537;57.134;-2.136;2022-10-16T01:36:10;98337.13;;;9.03;100.00
41862;BME280;27537;57.134;-2.136;2022-10-16T01:38:40;98318.59;;;8.95;100.00
41862;BME280;27537;57.134;-2.136;2022-10-16T01:43:48;98315.03;;;8.96;100.00
41862;BME280;27537;57.134;-2.136;2022-10-16T01:46:18;98322.94;;;9.07;100.00
41862;BME280;27537;57.134;-2.136;2022-10-16T01:48:48;98306.56;;;8.92;100.00
41862;BME280;27537;57.134;-2.136;2022-10-16T01:51:17;98316.09;;;8.93;100.00
41862;BME280;27537;57.134;-2.136;2022-10-16T01:53:48;98306.47;;;8.93;100.00
41862;BME280;27537;57.134;-2.136;2022-10-16T01:56:17;98320.34;;;8.94;100.00
41862;BME280;27537;57.134;-2.136;2022-10-16T02:01:30;98324.13;;;8.90;100.00
41862;BME280;27537;57.134;-2.136;2022-10-16T02:04:01;98318.69;;;8.93;100.00
41862;BME280;27537;57.134;-2.136;2022-10-16T02:06:30;98276.03;;;8.68;100.00
41862;BME280;27537;57.134;-2.136;2022-10-16T02:08:57;98294.16;;;8.83;100.00
41862;BME280;27537;57.134;-2.136;2022-10-16T02:11:24;98286.03;;;8.74;100.00
41862;BME280;27537;57.134;-2.136;2022-10-16T02:13:55;98310.97;;;8.79;100.00
41862;BME280;27537;57.134;-2.136;2022-10-16T02:16:33;98281.78;;;8.61;100.00
41862;BME280;27537;57.134;-2.136;2022-10-16T02:19:00;98337.91;;;8.79;100.00
41862;BME280;27537;57.134;-2.136;2022-10-16T02:22:00;98335.50;;;8.89;100.00
41862;BME280;27537;57.134;-2.136;2022-10-16T02:24:32;98344.47;;;8.85;100.00
41862;BME280;27537;57.134;-2.136;2022-10-16T02:27:38;98341.44;;;8.78;100.00
41862;BME280;27537;57.134;-2.136;2022-10-16T02:30:12;98337.19;;;8.64;100.00
41862;BME280;27537;57.134;-2.136;2022-10-16T02:32:42;98368.16;;;8.82;100.00
41862;BME280;27537;57.134;-2.136;2022-10-16T02:35:11;98360.03;;;8.86;100.00
41862;BME280;27537;57.134;-2.136;2022-10-16T02:37:40;98355.97;;;8.82;100.00
41862;BME280;27537;57.134;-2.136;2022-10-16T02:40:08;98371.09;;;8.90;100.00
41862;BME280;27537;57.134;-2.136;2022-10-16T02:42:36;98388.09;;;8.96;100.00
41862;BME280;27537;57.134;-2.136;2022-10-16T02:45:04;98388.50;;;9.02;100.00
41862;BME280;27537;57.134;-2.136;2022-10-16T02:47:32;98400.41;;;8.93;100.00
41862;BME280;27537;57.134;-2.136;2022-10-16T02:49:59;98381.53;;;8.64;100.00
41862;BME280;27537;57.134;-2.136;2022-10-16T02:52:26;98413.25;;;8.71;100.00
41862;BME280;27537;57.134;-2.136;2022-10-16T02:54:53;98424.53;;;8.71;100.00
41862;BME280;27537;57.134;-2.136;2022-10-16T02:57:20;98424.34;;;8.87;100.00
41862;BME280;27537;57.134;-2.136;2022-10-16T02:59:50;98423.91;;;8.81;100.00
41862;BME280;27537;57.134;-2.136;2022-10-16T03:02:17;98438.41;;;8.72;100.00
41862;BME280;27537;57.134;-2.136;2022-10-16T03:04:44;98437.56;;;8.71;100.00
41862;BME280;27537;57.134;-2.136;2022-10-16T03:07:11;98432.22;;;8.60;100.00
41862;BME280;27537;57.134;-2.136;2022-10-16T03:09:37;98400.13;;;8.32;100.00
41862;BME280;27537;57.134;-2.136;2022-10-16T03:12:04;98453.13;;;8.73;100.00
41862;BME280;27537;57.134;-2.136;2022-10-16T03:14:31;98455.31;;;8.66;100.00
41862;BME280;27537;57.134;-2.136;2022-10-16T03:16:58;98453.53;;;8.67;100.00
41862;BME280;27537;57.134;-2.136;2022-10-16T03:19:25;98470.50;;;8.60;100.00
41862;BME280;27537;57.134;-2.136;2022-10-16T03:21:51;98473.72;;;8.50;100.00
41862;BME280;27537;57.134;-2.136;2022-10-16T03:24:18;98483.66;;;8.58;100.00
41862;BME280;27537;57.134;-2.136;2022-10-16T03:26:45;98475.91;;;8.44;100.00
41862;BME280;27537;57.134;-2.136;2022-10-16T03:29:11;98478.03;;;8.37;100.00
41862;BME280;27537;57.134;-2.136;2022-10-16T03:31:38;98494.53;;;8.38;100.00
41862;BME280;27537;57.134;-2.136;2022-10-16T03:34:05;98477.84;;;8.13;100.00
41862;BME280;27537;57.134;-2.136;2022-10-16T03:36:32;98484.38;;;8.06;100.00
41862;BME280;27537;57.134;-2.136;2022-10-16T03:38:59;98449.75;;;8.04;100.00
41862;BME280;27537;57.134;-2.136;2022-10-16T03:41:25;98491.03;;;8.24;100.00
41862;BME280;27537;57.134;-2.136;2022-10-16T03:43:52;98510.59;;;8.17;100.00
41862;BME280;27537;57.134;-2.136;2022-10-16T03:46:19;98512.84;;;8.09;100.00
41862;BME280;27537;57.134;-2.136;2022-10-16T03:48:46;98503.44;;;8.06;100.00
41862;BME280;27537;57.134;-2.136;2022-10-16T03:51:12;98502.72;;;8.04;100.00
41862;BME280;27537;57.134;-2.136;2022-10-16T03:53:39;98524.38;;;8.19;100.00
41862;BME280;27537;57.134;-2.136;2022-10-16T03:56:06;98525.97;;;8.07;100.00
41862;BME280;27537;57.134;-2.136;2022-10-16T03:58:33;98548.31;;;8.11;100.00
41862;BME280;27537;57.134;-2.136;2022-10-16T04:01:00;98535.00;;;8.02;100.00
41862;BME280;27537;57.134;-2.136;2022-10-16T04:03:27;98555.66;;;8.05;100.00
41862;BME280;27537;57.134;-2.136;2022-10-16T04:05:53;98559.59;;;7.97;100.00
41862;BME280;27537;57.134;-2.136;2022-10-16T04:08:20;98565.34;;;8.03;100.00
41862;BME280;27537;57.134;-2.136;2022-10-16T04:10:47;98573.53;;;8.11;100.00
41862;BME280;27537;57.134;-2.136;2022-10-16T04:13:14;98587.28;;;8.27;100.00
41862;BME280;27537;57.134;-2.136;2022-10-16T04:15:41;98593.72;;;7.78;100.00
41862;BME280;27537;57.134;-2.136;2022-10-16T04:18:08;98594.13;;;7.87;100.00
41862;BME280;27537;57.134;-2.136;2022-10-16T04:20:35;98604.53;;;7.72;100.00
41862;BME280;27537;57.134;-2.136;2022-10-16T04:23:02;98608.22;;;7.68;100.00
41862;BME280;27537;57.134;-2.136;2022-10-16T04:25:30;98628.34;;;7.66;100.00
41862;BME280;27537;57.134;-2.136;2022-10-16T04:27:56;98614.53;;;7.50;100.00
41862;BME280;27537;57.134;-2.136;2022-10-16T04:30:23;98623.38;;;7.47;100.00
41862;BME280;27537;57.134;-2.136;2022-10-16T04:32:51;98634.81;;;7.45;100.00
41862;BME280;27537;57.134;-2.136;2022-10-16T04:35:19;98631.94;;;7.49;100.00
41862;BME280;27537;57.134;-2.136;2022-10-16T04:37:47;98604.34;;;7.31;100.00
41862;BME280;27537;57.134;-2.136;2022-10-16T04:40:14;98629.59;;;7.45;100.00
41862;BME280;27537;57.134;-2.136;2022-10-16T04:42:41;98612.06;;;7.18;100.00
41862;BME280;27537;57.134;-2.136;2022-10-16T04:45:08;98637.66;;;7.40;100.00
41862;BME280;27537;57.134;-2.136;2022-10-16T04:47:40;98629.47;;;7.32;100.00
41862;BME280;27537;57.134;-2.136;2022-10-16T04:50:07;98651.06;;;7.34;100.00
41862;BME280;27537;57.134;-2.136;2022-10-16T04:52:34;98646.09;;;7.29;100.00
41862;BME280;27537;57.134;-2.136;2022-10-16T04:55:06;98648.13;;;7.24;100.00
41862;BME280;27537;57.134;-2.136;2022-10-16T04:57:33;98641.13;;;7.10;100.00
41862;BME280;27537;57.134;-2.136;2022-10-16T04:59:59;98663.44;;;7.14;100.00
41862;BME280;27537;57.134;-2.136;2022-10-16T05:02:26;98678.97;;;7.16;100.00
41862;BME280;27537;57.134;-2.136;2022-10-16T05:04:53;98678.31;;;7.12;100.00
41862;BME280;27537;57.134;-2.136;2022-10-16T05:07:20;98665.16;;;6.99;100.00
41862;BME280;27537;57.134;-2.136;2022-10-16T05:09:47;98671.19;;;7.00;100.00
41862;BME280;27537;57.134;-2.136;2022-10-16T05:12:14;98680.66;;;7.01;100.00
41862;BME280;27537;57.134;-2.136;2022-10-16T05:14:40;98685.88;;;6.85;100.00
41862;BME280;27537;57.134;-2.136;2022-10-16T05:17:07;98686.13;;;6.64;100.00
41862;BME280;27537;57.134;-2.136;2022-10-16T05:19:34;98695.88;;;6.77;100.00
41862;BME280;27537;57.134;-2.136;2022-10-16T05:22:01;98689.41;;;6.68;100.00
41862;BME280;27537;57.134;-2.136;2022-10-16T05:24:28;98697.81;;;6.73;100.00
41862;BME280;27537;57.134;-2.136;2022-10-16T05:26:54;98702.72;;;6.78;100.00
41862;BME280;27537;57.134;-2.136;2022-10-16T05:29:21;98709.88;;;6.74;100.00
41862;BME280;27537;57.134;-2.136;2022-10-16T05:31:52;98720.53;;;6.70;100.00
41862;BME280;27537;57.134;-2.136;2022-10-16T05:34:20;98735.47;;;6.82;100.00
41862;BME280;27537;57.134;-2.136;2022-10-16T05:36:47;98725.72;;;6.70;100.00
41862;BME280;27537;57.134;-2.136;2022-10-16T05:39:15;98743.19;;;6.83;100.00
41862;BME280;27537;57.134;-2.136;2022-10-16T05:41:43;98723.72;;;6.75;100.00
41862;BME280;27537;57.134;-2.136;2022-10-16T05:44:10;98734.81;;;6.78;100.00
41862;BME280;27537;57.134;-2.136;2022-10-16T05:46:37;98748.88;;;6.74;100.00
41862;BME280;27537;57.134;-2.136;2022-10-16T05:49:03;98723.44;;;6.63;100.00
41862;BME280;27537;57.134;-2.136;2022-10-16T05:51:30;98729.91;;;6.56;100.00
41862;BME280;27537;57.134;-2.136;2022-10-16T05:53:57;98744.75;;;6.54;100.00
41862;BME280;27537;57.134;-2.136;2022-10-16T05:56:23;98758.34;;;6.59;100.00
41862;BME280;27537;57.134;-2.136;2022-10-16T05:58:50;98744.81;;;6.53;100.00
41862;BME280;27537;57.134;-2.136;2022-10-16T06:01:18;98772.63;;;6.68;100.00
41862;BME280;27537;57.134;-2.136;2022-10-16T06:03:45;98769.44;;;6.63;100.00
41862;BME280;27537;57.134;-2.136;2022-10-16T06:06:15;98774.72;;;6.77;100.00
41862;BME280;27537;57.134;-2.136;2022-10-16T06:08:43;98740.56;;;6.52;100.00
41862;BME280;27537;57.134;-2.136;2022-10-16T06:11:15;98780.66;;;6.63;100.00
41862;BME280;27537;57.134;-2.136;2022-10-16T06:13:42;98773.72;;;6.64;100.00
41862;BME280;27537;57.134;-2.136;2022-10-16T06:16:10;98769.34;;;6.64;100.00
41862;BME280;27537;57.134;-2.136;2022-10-16T06:18:37;98771.84;;;6.50;100.00
41862;BME280;27537;57.134;-2.136;2022-10-16T06:21:30;98790.22;;;6.63;100.00
41862;BME280;27537;57.134;-2.136;2022-10-16T06:23:58;98769.53;;;6.44;100.00
41862;BME280;27537;57.134;-2.136;2022-10-16T06:26:27;98790.72;;;6.54;100.00
41862;BME280;27537;57.134;-2.136;2022-10-16T06:28:55;98752.47;;;6.22;100.00
41862;BME280;27537;57.134;-2.136;2022-10-16T06:31:22;98809.81;;;6.53;100.00
41862;BME280;27537;57.134;-2.136;2022-10-16T06:33:54;98811.81;;;6.47;100.00
41862;BME280;27537;57.134;-2.136;2022-10-16T06:36:21;98781.66;;;6.27;100.00
41862;BME280;27537;57.134;-2.136;2022-10-16T06:38:47;98782.75;;;6.23;100.00
41862;BME280;27537;57.134;-2.136;2022-10-16T06:41:16;98794.84;;;6.40;100.00
41862;BME280;27537;57.134;-2.136;2022-10-16T06:43:44;98792.34;;;6.39;100.00
41862;BME280;27537;57.134;-2.136;2022-10-16T06:46:13;98822.75;;;6.54;100.00
41862;BME280;27537;57.134;-2.136;2022-10-16T06:48:41;98824.75;;;6.49;100.00
41862;BME280;27537;57.134;-2.136;2022-10-16T06:51:09;98838.97;;;6.59;100.00
41862;BME280;27537;57.134;-2.136;2022-10-16T06:53:40;98834.53;;;6.44;100.00
41862;BME280;27537;57.134;-2.136;2022-10-16T06:56:27;98806.88;;;6.25;100.00
41862;BME280;27537;57.134;-2.136;2022-10-16T06:58:56;98859.63;;;6.62;100.00
41862;BME280;27537;57.134;-2.136;2022-10-16T07:01:24;98833.91;;;6.56;100.00
41862;BME280;27537;57.134;-2.136;2022-10-16T07:03:51;98851.13;;;6.59;100.00
41862;BME280;27537;57.134;-2.136;2022-10-16T07:06:20;98866.41;;;6.65;100.00
41862;BME280;27537;57.134;-2.136;2022-10-16T07:08:47;98866.63;;;6.60;100.00
41862;BME280;27537;57.134;-2.136;2022-10-16T07:11:17;98872.91;;;6.56;100.00
41862;BME280;27537;57.134;-2.136;2022-10-16T07:13:45;98868.47;;;6.58;100.00
41862;BME280;27537;57.134;-2.136;2022-10-16T07:16:21;98855.72;;;6.54;100.00
41862;BME280;27537;57.134;-2.136;2022-10-16T07:18:49;98848.84;;;6.35;100.00
41862;BME280;27537;57.134;-2.136;2022-10-16T07:21:21;98856.56;;;6.37;100.00
41862;BME280;27537;57.134;-2.136;2022-10-16T07:23:53;98850.69;;;6.33;100.00
41862;BME280;27537;57.134;-2.136;2022-10-16T07:26:21;98892.63;;;6.60;100.00
41862;BME280;27537;57.134;-2.136;2022-10-16T07:28:49;98894.13;;;6.49;100.00
41862;BME280;27537;57.134;-2.136;2022-10-16T07:31:18;98918.63;;;6.60;100.00
41862;BME280;27537;57.134;-2.136;2022-10-16T07:33:46;98899.38;;;6.47;100.00
41862;BME280;27537;57.134;-2.136;2022-10-16T07:36:19;98920.94;;;6.67;100.00
41862;BME280;27537;57.134;-2.136;2022-10-16T07:38:46;98929.81;;;6.62;100.00
41862;BME280;27537;57.134;-2.136;2022-10-16T07:41:16;98904.97;;;6.39;100.00
41862;BME280;27537;57.134;-2.136;2022-10-16T07:43:47;98935.03;;;6.80;100.00
41862;BME280;27537;57.134;-2.136;2022-10-16T07:46:15;98955.19;;;6.92;100.00
41862;BME280;27537;57.134;-2.136;2022-10-16T07:48:43;98958.88;;;7.55;100.00
41862;BME280;27537;57.134;-2.136;2022-10-16T07:51:18;98952.50;;;7.92;100.00
41862;BME280;27537;57.134;-2.136;2022-10-16T07:53:46;98956.38;;;8.01;100.00
41862;BME280;27537;57.134;-2.136;2022-10-16T07:56:14;98958.56;;;8.55;100.00
41862;BME280;27537;57.134;-2.136;2022-10-16T07:58:41;98987.06;;;9.19;100.00
41862;BME280;27537;57.134;-2.136;2022-10-16T08:01:10;98973.16;;;9.61;100.00
41862;BME280;27537;57.134;-2.136;2022-10-16T08:03:37;98927.09;;;9.31;100.00
41862;BME280;27537;57.134;-2.136;2022-10-16T08:06:04;98975.41;;;9.53;100.00
41862;BME280;27537;57.134;-2.136;2022-10-16T08:08:31;98979.50;;;9.57;100.00
41862;BME280;27537;57.134;-2.136;2022-10-16T08:10:58;99005.63;;;9.43;100.00
41862;BME280;27537;57.134;-2.136;2022-10-16T08:13:25;99013.56;;;9.70;100.00
41862;BME280;27537;57.134;-2.136;2022-10-16T08:15:53;99013.81;;;9.94;100.00
41862;BME280;27537;57.134;-2.136;2022-10-16T08:18:21;98972.84;;;9.80;100.00
41862;BME280;27537;57.134;-2.136;2022-10-16T08:20:48;98988.63;;;9.79;100.00
41862;BME280;27537;57.134;-2.136;2022-10-16T08:23:14;99013.44;;;10.15;100.00
41862;BME280;27537;57.134;-2.136;2022-10-16T08:25:41;99038.09;;;10.52;100.00
41862;BME280;27537;57.134;-2.136;2022-10-16T08:28:10;99065.09;;;10.53;100.00
41862;BME280;27537;57.134;-2.136;2022-10-16T08:30:37;99083.78;;;10.61;100.00
41862;BME280;27537;57.134;-2.136;2022-10-16T08:33:04;99084.69;;;10.33;100.00
41862;BME280;27537;57.134;-2.136;2022-10-16T08:35:33;99070.22;;;9.98;100.00
41862;BME280;27537;57.134;-2.136;2022-10-16T08:37:59;99072.38;;;9.92;100.00
41862;BME280;27537;57.134;-2.136;2022-10-16T08:40:31;99100.50;;;9.88;100.00
41862;BME280;27537;57.134;-2.136;2022-10-16T08:48:29;99118.47;;;10.21;100.00
41862;BME280;27537;57.134;-2.136;2022-10-16T08:50:57;99120.28;;;9.92;100.00
41862;BME280;27537;57.134;-2.136;2022-10-16T08:53:28;99111.94;;;9.71;100.00
41862;BME280;27537;57.134;-2.136;2022-10-16T08:55:56;99118.50;;;9.78;100.00
41862;BME280;27537;57.134;-2.136;2022-10-16T08:58:29;99141.28;;;9.91;100.00
41862;BME280;27537;57.134;-2.136;2022-10-16T09:00:59;99148.28;;;10.04;100.00
41862;BME280;27537;57.134;-2.136;2022-10-16T09:09:26;99169.38;;;10.16;100.00
41862;BME280;27537;57.134;-2.136;2022-10-16T09:12:19;99164.47;;;10.11;100.00
41862;BME280;27537;57.134;-2.136;2022-10-16T09:22:37;99188.31;;;9.76;100.00
41862;BME280;27537;57.134;-2.136;2022-10-16T09:25:14;99194.31;;;9.93;100.00
41862;BME280;27537;57.134;-2.136;2022-10-16T09:27:44;99249.78;;;10.57;100.00
41862;BME280;27537;57.134;-2.136;2022-10-16T09:30:18;99210.50;;;10.14;100.00
41862;BME280;27537;57.134;-2.136;2022-10-16T09:32:48;99225.19;;;10.31;100.00
41862;BME280;27537;57.134;-2.136;2022-10-16T09:35:18;99208.16;;;10.09;100.00
41862;BME280;27537;57.134;-2.136;2022-10-16T09:37:49;99230.81;;;10.39;100.00
41862;BME280;27537;57.134;-2.136;2022-10-16T09:40:37;99269.03;;;10.56;100.00
41862;BME280;27537;57.134;-2.136;2022-10-16T09:43:26;99276.41;;;10.63;100.00
41862;BME280;27537;57.134;-2.136;2022-10-16T09:46:21;99275.66;;;10.76;100.00
41862;BME280;27537;57.134;-2.136;2022-10-16T09:48:54;99268.22;;;10.55;100.00
41862;BME280;27537;57.134;-2.136;2022-10-16T09:51:34;99312.63;;;10.86;100.00
41862;BME280;27537;57.134;-2.136;2022-10-16T09:54:13;99317.28;;;10.66;100.00
41862;BME280;27537;57.134;-2.136;2022-10-16T09:56:40;99307.91;;;10.62;100.00
41862;BME280;27537;57.134;-2.136;2022-10-16T09:59:14;99333.16;;;10.77;100.00
41862;BME280;27537;57.134;-2.136;2022-10-16T10:01:51;99311.41;;;10.77;100.00
41862;BME280;27537;57.134;-2.136;2022-10-16T10:04:20;99334.13;;;10.91;100.00
41862;BME280;27537;57.134;-2.136;2022-10-16T10:06:49;99346.09;;;10.80;100.00
41862;BME280;27537;57.134;-2.136;2022-10-16T10:09:31;99318.13;;;10.81;100.00
41862;BME280;27537;57.134;-2.136;2022-10-16T10:12:01;99352.72;;;11.00;100.00
41862;BME280;27537;57.134;-2.136;2022-10-16T10:14:52;99304.38;;;10.77;100.00
41862;BME280;27537;57.134;-2.136;2022-10-16T10:17:21;99362.97;;;11.32;100.00
41862;BME280;27537;57.134;-2.136;2022-10-16T10:33:21;99386.47;;;11.75;100.00
41862;BME280;27537;57.134;-2.136;2022-10-16T10:38:34;99416.28;;;12.02;100.00
41862;BME280;27537;57.134;-2.136;2022-10-16T10:41:17;99442.63;;;12.00;100.00
41862;BME280;27537;57.134;-2.136;2022-10-16T10:46:51;99448.97;;;12.10;100.00
41862;BME280;27537;57.134;-2.136;2022-10-16T10:55:18;99447.38;;;12.35;100.00
41862;BME280;27537;57.134;-2.136;2022-10-16T11:00:42;99478.59;;;13.05;100.00
41862;BME280;27537;57.134;-2.136;2022-10-16T11:06:21;99481.31;;;13.29;100.00
41862;BME280;27537;57.134;-2.136;2022-10-16T11:08:55;99474.09;;;13.20;100.00
41862;BME280;27537;57.134;-2.136;2022-10-16T11:11:34;99490.00;;;13.32;100.00
41862;BME280;27537;57.134;-2.136;2022-10-16T11:14:23;99516.78;;;13.62;100.00
41862;BME280;27537;57.134;-2.136;2022-10-16T11:16:58;99530.03;;;13.61;100.00
41862;BME280;27537;57.134;-2.136;2022-10-16T11:25:02;99561.72;;;13.59;100.00
41862;BME280;27537;57.134;-2.136;2022-10-16T11:27:39;99536.78;;;13.39;100.00
41862;BME280;27537;57.134;-2.136;2022-10-16T11:30:21;99559.78;;;13.23;99.33
41862;BME280;27537;57.134;-2.136;2022-10-16T11:36:06;99610.22;;;13.42;100.00
41862;BME280;27537;57.134;-2.136;2022-10-16T11:43:49;99623.06;;;13.85;97.24
41862;BME280;27537;57.134;-2.136;2022-10-16T11:46:21;99591.38;;;13.61;99.74
41862;BME280;27537;57.134;-2.136;2022-10-16T11:51:45;99631.53;;;14.28;98.54
41862;BME280;27537;57.134;-2.136;2022-10-16T11:54:37;99626.03;;;14.43;100.00
41862;BME280;27537;57.134;-2.136;2022-10-16T11:57:13;99644.66;;;14.40;96.91
41862;BME280;27537;57.134;-2.136;2022-10-16T12:00:08;99630.97;;;14.35;99.40
41862;BME280;27537;57.134;-2.136;2022-10-16T12:02:49;99664.97;;;14.51;95.47
41862;BME280;27537;57.134;-2.136;2022-10-16T12:08:16;99681.41;;;14.68;94.41
41862;BME280;27537;57.134;-2.136;2022-10-16T12:10:46;99700.50;;;14.46;83.24
41862;BME280;27537;57.134;-2.136;2022-10-16T12:13:38;99699.38;;;14.24;81.38
41862;BME280;27537;57.134;-2.136;2022-10-16T12:16:28;99695.03;;;14.10;82.22
41862;BME280;27537;57.134;-2.136;2022-10-16T12:19:18;99712.63;;;14.10;82.68
41862;BME280;27537;57.134;-2.136;2022-10-16T12:21:46;99709.56;;;14.29;83.55
41862;BME280;27537;57.134;-2.136;2022-10-16T12:24:27;99712.94;;;14.43;84.55
41862;BME280;27537;57.134;-2.136;2022-10-16T12:26:56;99727.00;;;14.55;81.70
41862;BME280;27537;57.134;-2.136;2022-10-16T12:29:33;99728.47;;;14.85;83.52
41862;BME280;27537;57.134;-2.136;2022-10-16T12:32:04;99722.91;;;14.77;80.36
41862;BME280;27537;57.134;-2.136;2022-10-16T12:34:39;99748.78;;;14.59;77.66
41862;BME280;27537;57.134;-2.136;2022-10-16T12:37:19;99742.38;;;14.87;79.22
41862;BME280;27537;57.134;-2.136;2022-10-16T12:39:48;99726.19;;;14.68;78.84
41862;BME280;27537;57.134;-2.136;2022-10-16T12:44:55;99750.94;;;14.27;78.20
41862;BME280;27537;57.134;-2.136;2022-10-16T12:49:58;99731.69;;;14.39;77.94
41862;BME280;27537;57.134;-2.136;2022-10-16T12:55:01;99767.22;;;14.96;79.04
41862;BME280;27537;57.134;-2.136;2022-10-16T13:11:48;99810.81;;;14.76;76.11
41862;BME280;27537;57.134;-2.136;2022-10-16T13:17:40;99824.72;;;14.52;74.00
41862;BME280;27537;57.134;-2.136;2022-10-16T13:23:17;99842.53;;;14.74;74.63
41862;BME280;27537;57.134;-2.136;2022-10-16T13:26:00;99827.97;;;14.56;74.83
41862;BME280;27537;57.134;-2.136;2022-10-16T13:28:33;99852.63;;;14.68;72.76
41862;BME280;27537;57.134;-2.136;2022-10-16T13:31:01;99861.81;;;14.75;73.79
41862;BME280;27537;57.134;-2.136;2022-10-16T13:33:39;99881.41;;;14.84;73.65
41862;BME280;27537;57.134;-2.136;2022-10-16T13:36:23;99857.50;;;14.61;73.55
41862;BME280;27537;57.134;-2.136;2022-10-16T13:41:38;99859.34;;;14.46;73.65
41862;BME280;27537;57.134;-2.136;2022-10-16T13:44:07;99895.84;;;14.65;70.33
41862;BME280;27537;57.134;-2.136;2022-10-16T13:46:38;99827.00;;;14.44;71.33
41862;BME280;27537;57.134;-2.136;2022-10-16T13:49:12;99879.78;;;14.55;69.71
41862;BME280;27537;57.134;-2.136;2022-10-16T13:51:39;99871.66;;;14.33;69.37
41862;BME280;27537;57.134;-2.136;2022-10-16T13:54:09;99860.91;;;14.23;68.56
41862;BME280;27537;57.134;-2.136;2022-10-16T13:56:38;99872.69;;;14.30;69.16
41862;BME280;27537;57.134;-2.136;2022-10-16T13:59:22;99918.34;;;14.31;68.21
41862;BME280;27537;57.134;-2.136;2022-10-16T14:01:49;99954.50;;;14.41;67.18
41862;BME280;27537;57.134;-2.136;2022-10-16T14:04:17;99920.25;;;14.14;65.18
41862;BME280;27537;57.134;-2.136;2022-10-16T14:06:46;99962.94;;;14.47;66.65
41862;BME280;27537;57.134;-2.136;2022-10-16T14:09:24;99924.63;;;14.28;67.15
41862;BME280;27537;57.134;-2.136;2022-10-16T14:12:00;99982.09;;;14.49;67.15
41862;BME280;27537;57.134;-2.136;2022-10-16T14:14:34;99938.09;;;14.23;67.03
41862;BME280;27537;57.134;-2.136;2022-10-16T14:17:02;99941.78;;;14.21;65.97
41862;BME280;27537;57.134;-2.136;2022-10-16T14:19:30;99958.47;;;14.07;65.21
41862;BME280;27537;57.134;-2.136;2022-10-16T14:21:58;99977.09;;;14.31;65.13
41862;BME280;27537;57.134;-2.136;2022-10-16T14:24:32;99974.59;;;14.42;66.28
41862;BME280;27537;57.134;-2.136;2022-10-16T14:27:00;99986.38;;;14.37;65.87
41862;BME280;27537;57.134;-2.136;2022-10-16T14:29:29;99991.56;;;14.38;66.11
41862;BME280;27537;57.134;-2.136;2022-10-16T14:32:03;100001.03;;;14.41;66.86
41862;BME280;27537;57.134;-2.136;2022-10-16T14:34:38;99973.31;;;14.35;66.18
41862;BME280;27537;57.134;-2.136;2022-10-16T14:37:22;99993.44;;;14.36;67.27
41862;BME280;27537;57.134;-2.136;2022-10-16T14:39:54;99989.75;;;14.39;66.67
41862;BME280;27537;57.134;-2.136;2022-10-16T14:42:24;99980.44;;;14.20;66.35
41862;BME280;27537;57.134;-2.136;2022-10-16T14:44:52;99966.56;;;14.31;66.81
41862;BME280;27537;57.134;-2.136;2022-10-16T14:47:23;99976.66;;;14.24;66.34
41862;BME280;27537;57.134;-2.136;2022-10-16T14:49:54;99948.75;;;14.22;66.07
41862;BME280;27537;57.134;-2.136;2022-10-16T14:52:22;99978.25;;;14.27;66.87
41862;BME280;27537;57.134;-2.136;2022-10-16T14:54:49;99969.81;;;14.08;66.61
41862;BME280;27537;57.134;-2.136;2022-10-16T14:57:18;99974.09;;;14.23;67.33
41862;BME280;27537;57.134;-2.136;2022-10-16T14:59:47;99994.47;;;14.34;67.90
41862;BME280;27537;57.134;-2.136;2022-10-16T15:04:48;100004.78;;;14.24;68.76
41862;BME280;27537;57.134;-2.136;2022-10-16T15:07:15;100016.56;;;14.04;68.67